createdAt,value
2023-05-19T04:00:32.524Z,91064.53
2023-05-19T04:03:17.878Z,91070.25
2023-05-19T04:06:02.563Z,91074.81
2023-05-19T04:08:47.372Z,91071.44
2023-05-19T04:11:32.241Z,91076.63
2023-05-19T04:14:17.016Z,91073.88
2023-05-19T04:17:02.111Z,91082.63
2023-05-19T04:19:46.932Z,91086.84
2023-05-19T04:22:31.912Z,91076.59
2023-05-19T04:25:16.872Z,91078.44
2023-05-19T04:28:01.709Z,91080.19
2023-05-19T04:30:46.715Z,91075.91
2023-05-19T04:33:31.378Z,91074.88
2023-05-19T04:36:16.341Z,91083.88
2023-05-19T04:39:01.202Z,91081.91
2023-05-19T04:41:46.095Z,91086.75
2023-05-19T04:44:30.952Z,91080.88
2023-05-19T04:47:15.823Z,91085.78
2023-05-19T04:50:00.628Z,91081.31
2023-05-19T04:52:45.687Z,91081.78
2023-05-19T04:55:30.434Z,91084.25
2023-05-19T04:58:15.250Z,91074.53
2023-05-19T05:01:00.152Z,91081.88
2023-05-19T05:03:45.057Z,91077.28
2023-05-19T05:06:30.030Z,91084.25
2023-05-19T05:09:14.780Z,91081.41
2023-05-19T05:11:59.770Z,91086.69
2023-05-19T05:14:44.631Z,91086.69
2023-05-19T05:17:29.564Z,91088.38
2023-05-19T05:20:14.184Z,91083.22
2023-05-19T05:22:59.004Z,91091.66
2023-05-19T05:25:43.863Z,91086.44
2023-05-19T05:28:28.801Z,91088.13
2023-05-19T05:31:13.621Z,91082.44
2023-05-19T05:33:58.487Z,91083.56
2023-05-19T05:36:43.253Z,91078.41
2023-05-19T05:39:28.114Z,91077.97
2023-05-19T05:42:13.183Z,91075.53
2023-05-19T05:44:58.017Z,91076.81
2023-05-19T05:47:42.766Z,91077.94
2023-05-19T05:50:27.726Z,91082.59
2023-05-19T05:53:12.554Z,91080.00
2023-05-19T05:55:57.395Z,91075.53
2023-05-19T05:58:42.260Z,91086.09
2023-05-19T06:01:27.215Z,91085.69
2023-05-19T06:04:12.024Z,91079.50
2023-05-19T06:06:57.163Z,91073.84
2023-05-19T06:09:42.090Z,91078.72
2023-05-19T06:12:26.892Z,91074.16
2023-05-19T06:15:11.692Z,91081.22
2023-05-19T06:17:56.557Z,91078.19
2023-05-19T06:20:41.319Z,91077.25
2023-05-19T06:23:26.125Z,91071.50
2023-05-19T06:26:10.984Z,91074.41
2023-05-19T06:28:55.812Z,91077.72
2023-05-19T06:31:40.872Z,91072.94
2023-05-19T06:34:25.586Z,91076.06
2023-05-19T06:37:10.313Z,91072.47
2023-05-19T06:39:55.219Z,91084.28
2023-05-19T06:42:40.098Z,91074.16
2023-05-19T06:45:25.185Z,91080.41
2023-05-19T06:48:10.140Z,91078.50
2023-05-19T06:50:54.816Z,91078.03
2023-05-19T06:53:39.571Z,91074.63
2023-05-19T06:56:24.494Z,91076.53
2023-05-19T06:59:09.321Z,91077.91
2023-05-19T07:01:54.329Z,91087.56
2023-05-19T07:04:39.171Z,91073.91
2023-05-19T07:07:23.977Z,91073.91
2023-05-19T07:10:08.959Z,91070.78
2023-05-19T07:12:53.824Z,91071.22
2023-05-19T07:15:38.920Z,91068.09
2023-05-19T07:18:23.724Z,91074.41
2023-05-19T07:21:08.557Z,91077.03
2023-05-19T07:23:53.391Z,91073.44
2023-05-19T07:26:38.328Z,91071.59
2023-05-19T07:29:23.181Z,91072.47
2023-05-19T07:32:08.122Z,91078.72
2023-05-19T07:34:53.105Z,91072.47
2023-05-19T07:37:37.967Z,91069.50
2023-05-19T07:40:23.012Z,91068.75
2023-05-19T07:43:07.936Z,91065.94
2023-05-19T07:45:52.854Z,91049.50
2023-05-19T07:48:37.567Z,91051.47
2023-05-19T07:51:22.384Z,91047.97
2023-05-19T07:54:07.194Z,91047.13
2023-05-19T07:56:52.071Z,91061.09
2023-05-19T07:59:36.983Z,91048.34
2023-05-19T08:02:21.878Z,91050.75
2023-05-19T08:05:06.744Z,91046.75
2023-05-19T08:07:51.603Z,91043.13
2023-05-19T08:10:36.464Z,91038.59
2023-05-19T08:13:21.365Z,91033.00
2023-05-19T08:16:06.455Z,91034.03
2023-05-19T08:18:51.344Z,91028.22
2023-05-19T08:21:36.269Z,91032.28
2023-05-19T08:24:21.121Z,91034.31
2023-05-19T08:27:05.815Z,91022.94
2023-05-19T08:29:50.706Z,91032.13
2023-05-19T08:32:35.472Z,91021.03
2023-05-19T08:35:20.288Z,91021.75
2023-05-19T08:38:05.115Z,91016.69
2023-05-19T08:40:50.043Z,91014.09
2023-05-19T08:43:34.927Z,91016.25
2023-05-19T08:46:19.789Z,91014.81
2023-05-19T08:49:04.591Z,91006.75
2023-05-19T08:51:49.433Z,91007.13
2023-05-19T08:54:34.433Z,91014.06
2023-05-19T08:57:19.277Z,91006.63
2023-05-19T09:00:04.232Z,91003.84
2023-05-19T09:02:59.852Z,90998.88
2023-05-19T09:05:46.143Z,91004.00
2023-05-19T09:08:30.806Z,90994.41
2023-05-19T09:11:15.693Z,90991.75
2023-05-19T09:14:00.534Z,90988.63
2023-05-19T09:16:45.461Z,90989.53
2023-05-19T09:19:30.355Z,90977.31
2023-05-19T09:22:15.147Z,90975.72
2023-05-19T09:25:00.018Z,90973.44
2023-05-19T09:27:44.913Z,90974.19
2023-05-19T09:30:29.811Z,90976.91
2023-05-19T09:33:14.666Z,90973.25
2023-05-19T09:35:59.633Z,90959.91
2023-05-19T09:38:44.408Z,90946.31
2023-05-19T09:41:29.316Z,90953.44
2023-05-19T09:44:14.206Z,90944.56
2023-05-19T09:46:58.982Z,90940.50
2023-05-19T09:49:43.852Z,90950.66
2023-05-19T09:52:28.725Z,90933.28
2023-05-19T09:55:13.635Z,90936.28
2023-05-19T09:57:58.388Z,90935.50
2023-05-19T10:00:43.274Z,90946.31
2023-05-19T10:03:28.104Z,90937.63
2023-05-19T10:06:12.881Z,90938.72
2023-05-19T10:08:57.624Z,90929.59
2023-05-19T10:11:42.631Z,90931.94
2023-05-19T10:14:27.603Z,90931.97
2023-05-19T10:17:12.599Z,90925.47
2023-05-19T10:19:57.401Z,90920.59
2023-05-19T10:22:42.328Z,90922.84
2023-05-19T10:25:27.204Z,90919.72
2023-05-19T10:28:12.151Z,90910.66
2023-05-19T10:30:57.158Z,90917.28
2023-05-19T10:33:42.021Z,90918.72
2023-05-19T10:36:26.968Z,90915.47
2023-05-19T10:39:11.675Z,90911.22
2023-05-19T10:41:56.739Z,90910.59
2023-05-19T10:44:41.581Z,90896.94
2023-05-19T10:47:26.523Z,90901.09
2023-05-19T10:50:11.407Z,90905.34
2023-05-19T10:52:56.267Z,90902.00
2023-05-19T10:55:41.276Z,90898.09
2023-05-19T10:58:26.074Z,90896.25
2023-05-19T11:01:11.127Z,90891.69
2023-05-19T11:03:56.031Z,90894.41
2023-05-19T11:06:40.784Z,90892.91
2023-05-19T11:09:34.207Z,90888.59
2023-05-19T11:12:25.340Z,90893.47
2023-05-19T11:15:10.192Z,90893.69
2023-05-19T11:17:55.035Z,90890.59
2023-05-19T11:20:40.215Z,90878.13
2023-05-19T11:23:24.901Z,90877.56
2023-05-19T11:26:09.763Z,90875.63
2023-05-19T11:28:54.450Z,90874.72
2023-05-19T11:31:39.417Z,90864.34
2023-05-19T11:34:24.164Z,90865.34
2023-05-19T11:37:08.885Z,90866.16
2023-05-19T11:39:53.702Z,90870.78
2023-05-19T11:42:38.656Z,90866.44
2023-05-19T11:45:23.626Z,90874.44
2023-05-19T11:48:08.405Z,90870.00
2023-05-19T11:50:53.471Z,90874.09
2023-05-19T11:53:38.348Z,90864.50
2023-05-19T11:56:23.189Z,90862.34
2023-05-19T11:59:08.033Z,90864.59
2023-05-19T12:01:52.959Z,90862.13
2023-05-19T12:04:37.866Z,90864.78
2023-05-19T12:07:22.774Z,90865.25
2023-05-19T12:10:07.769Z,90863.22
2023-05-19T12:12:52.637Z,90860.91
2023-05-19T12:15:37.610Z,90864.06
2023-05-19T12:18:22.335Z,90866.31
2023-05-19T12:21:07.379Z,90863.78
2023-05-19T12:23:52.199Z,90867.16
2023-05-19T12:26:37.031Z,90870.94
2023-05-19T12:29:21.857Z,90856.03
2023-05-19T12:32:06.605Z,90860.06
2023-05-19T12:34:51.610Z,90865.56
2023-05-19T12:37:36.350Z,90867.53
2023-05-19T12:40:21.255Z,90870.00
2023-05-19T12:43:06.063Z,90869.63
2023-05-19T12:45:51.018Z,90871.69
2023-05-19T12:48:35.826Z,90868.00
2023-05-19T12:51:20.718Z,90867.16
2023-05-19T12:54:06.010Z,90864.03
2023-05-19T12:56:50.844Z,90877.88
2023-05-19T12:59:38.665Z,90869.88
2023-05-19T13:02:23.616Z,90870.31
2023-05-19T13:05:08.516Z,90864.34
2023-05-19T13:07:53.335Z,90867.94
2023-05-19T13:10:38.331Z,90865.06
2023-05-19T13:13:23.093Z,90865.34
2023-05-19T13:16:07.881Z,90869.50
2023-05-19T13:18:53.918Z,90868.09
2023-05-19T13:21:38.757Z,90866.03
2023-05-19T13:24:23.827Z,90876.53
2023-05-19T13:27:08.702Z,90860.78
2023-05-19T13:29:53.630Z,90864.38
2023-05-19T13:32:38.481Z,90856.19
2023-05-19T13:35:23.518Z,90859.06
2023-05-19T13:38:08.305Z,90857.09
2023-05-19T13:40:52.985Z,90859.81
2023-05-19T13:43:37.986Z,90850.88
2023-05-19T13:46:29.814Z,90850.25
2023-05-19T13:49:21.735Z,90852.50
2023-05-19T13:52:06.550Z,90851.41
2023-05-19T13:54:51.439Z,90841.22
2023-05-19T13:57:36.298Z,90843.53
2023-05-19T14:00:21.401Z,90856.34
2023-05-19T14:03:06.394Z,90852.00
2023-05-19T14:05:51.077Z,90844.44
2023-05-19T14:08:35.895Z,90845.19
2023-05-19T14:11:20.725Z,90852.69
2023-05-19T14:14:05.562Z,90850.13
2023-05-19T14:16:50.527Z,90854.25
2023-05-19T14:19:35.447Z,90856.91
2023-05-19T14:22:20.150Z,90852.03
2023-05-19T14:25:05.037Z,90852.56
2023-05-19T14:27:49.900Z,90849.91
2023-05-19T14:30:34.858Z,90847.28
2023-05-19T14:33:20.052Z,90844.06
2023-05-19T14:36:04.873Z,90847.44
2023-05-19T14:38:49.963Z,90841.34
2023-05-19T14:41:34.634Z,90843.38
2023-05-19T14:44:19.491Z,90833.34
2023-05-19T14:47:04.379Z,90838.59
2023-05-19T14:49:49.271Z,90835.03
2023-05-19T14:52:34.023Z,90830.69
2023-05-19T14:55:18.791Z,90827.81
2023-05-19T14:58:07.917Z,90824.03
2023-05-19T15:01:01.043Z,90819.00
2023-05-19T15:03:45.880Z,90812.34
2023-05-19T15:06:30.826Z,90816.03
2023-05-19T15:09:15.835Z,90817.13
2023-05-19T15:12:00.620Z,90808.91
2023-05-19T15:14:45.426Z,90813.72
2023-05-19T15:17:30.310Z,90812.84
2023-05-19T15:20:15.121Z,90818.56
2023-05-19T15:22:59.932Z,90810.63
2023-05-19T15:25:44.940Z,90815.56
2023-05-19T15:28:29.762Z,90813.22
2023-05-19T15:31:14.511Z,90818.13
2023-05-19T15:33:59.445Z,90808.00
2023-05-19T15:36:44.462Z,90814.00
2023-05-19T15:39:29.578Z,90809.75
2023-05-19T15:42:14.545Z,90806.38
2023-05-19T15:44:59.582Z,90795.66
2023-05-19T15:47:44.418Z,90800.75
2023-05-19T15:50:29.572Z,90796.56
2023-05-19T15:53:14.479Z,90791.44
2023-05-19T15:55:59.227Z,90799.50
2023-05-19T15:58:44.110Z,90798.09
2023-05-19T16:01:29.141Z,90804.44
2023-05-19T16:04:14.176Z,90798.09
2023-05-19T16:06:58.979Z,90803.00
2023-05-19T16:09:43.996Z,90790.63
2023-05-19T16:12:28.867Z,90798.06
2023-05-19T16:15:13.924Z,90789.09
2023-05-19T16:17:58.869Z,90793.00
2023-05-19T16:20:43.589Z,90794.41
2023-05-19T16:23:28.630Z,90795.84
2023-05-19T16:26:13.494Z,90782.44
2023-05-19T16:28:58.459Z,90793.38
2023-05-19T16:31:43.455Z,90792.47
2023-05-19T16:34:28.705Z,90781.63
2023-05-19T16:37:15.122Z,90784.78
2023-05-19T16:40:00.178Z,90788.03
2023-05-19T16:42:45.084Z,90795.63
2023-05-19T16:45:29.742Z,90787.75
2023-05-19T16:48:14.784Z,90796.53
2023-05-19T16:50:59.579Z,90792.69
2023-05-19T16:53:44.472Z,90792.94
2023-05-19T16:56:29.420Z,90802.28
2023-05-19T16:59:14.251Z,90800.72
2023-05-19T17:01:59.173Z,90793.25
2023-05-19T17:04:44.151Z,90798.50
2023-05-19T17:07:29.185Z,90798.72
2023-05-19T17:10:13.940Z,90810.16
2023-05-19T17:12:58.946Z,90812.72
2023-05-19T17:15:43.826Z,90810.88
2023-05-19T17:18:28.708Z,90817.63
2023-05-19T17:21:13.471Z,90817.19
2023-05-19T17:23:58.432Z,90814.34
2023-05-19T17:26:43.190Z,90828.94
2023-05-19T17:29:28.152Z,90830.75
2023-05-19T17:32:13.009Z,90831.84
2023-05-19T17:34:57.973Z,90832.94
2023-05-19T17:37:42.942Z,90831.84
2023-05-19T17:40:27.927Z,90822.00
2023-05-19T17:43:12.955Z,90831.63
2023-05-19T17:45:58.892Z,90828.66
2023-05-19T17:48:45.601Z,90840.91
2023-05-19T17:51:30.431Z,90842.31
2023-05-19T17:54:15.313Z,90840.31
2023-05-19T17:57:00.208Z,90836.59
2023-05-19T17:59:45.039Z,90845.03
2023-05-19T18:02:30.005Z,90848.59
2023-05-19T18:05:14.752Z,90841.78
2023-05-19T18:07:59.555Z,90849.72
2023-05-19T18:10:44.377Z,90850.00
2023-05-19T18:13:29.270Z,90861.38
2023-05-19T18:16:14.166Z,90856.53
2023-05-19T18:18:58.864Z,90853.81
2023-05-19T18:21:43.788Z,90858.63
2023-05-19T18:24:28.637Z,90857.47
2023-05-19T18:27:13.445Z,90863.28
2023-05-19T18:29:58.196Z,90854.38
2023-05-19T18:32:43.089Z,90863.78
2023-05-19T18:35:27.937Z,90870.72
2023-05-19T18:38:12.852Z,90866.50
2023-05-19T18:40:57.768Z,90866.69
2023-05-19T18:43:42.563Z,90868.09
2023-05-19T18:46:27.615Z,90877.88
2023-05-19T18:49:12.301Z,90877.63
2023-05-19T18:51:57.101Z,90882.78
2023-05-19T18:54:41.844Z,90887.38
2023-05-19T18:57:26.794Z,90879.88
2023-05-19T19:00:11.715Z,90883.69
2023-05-19T19:02:56.594Z,90880.72
2023-05-19T19:05:41.515Z,90879.34
2023-05-19T19:08:26.239Z,90886.75
2023-05-19T19:11:11.080Z,90895.97
2023-05-19T19:13:55.901Z,90904.56
2023-05-19T19:16:40.935Z,90903.16
2023-05-19T19:19:25.790Z,90917.53
2023-05-19T19:22:10.619Z,90915.78
2023-05-19T19:24:55.540Z,90917.44
2023-05-19T19:27:40.478Z,90912.31
2023-05-19T19:30:25.255Z,90911.06
2023-05-19T19:33:10.128Z,90914.19
2023-05-19T19:35:55.203Z,90917.81
2023-05-19T19:38:40.084Z,90920.47
2023-05-19T19:41:25.049Z,90919.06
2023-05-19T19:44:09.765Z,90916.13
2023-05-19T19:46:54.770Z,90913.69
2023-05-19T19:49:39.429Z,90918.00
2023-05-19T19:52:24.469Z,90924.16
2023-05-19T19:55:09.251Z,90926.22
2023-05-19T19:57:54.110Z,90932.16
2023-05-19T20:00:39.099Z,90930.94
2023-05-19T20:03:23.900Z,90928.75
2023-05-19T20:06:08.697Z,90936.16
2023-05-19T20:08:53.511Z,90939.19
2023-05-19T20:11:38.491Z,90951.38
2023-05-19T20:14:23.404Z,90946.13
2023-05-19T20:17:08.242Z,90943.25
2023-05-19T20:19:53.183Z,90935.03
2023-05-19T20:22:38.058Z,90947.03
2023-05-19T20:25:22.926Z,90946.81
2023-05-19T20:28:07.709Z,90941.50
2023-05-19T20:30:52.558Z,90950.41
2023-05-19T20:33:37.363Z,90944.38
2023-05-19T20:36:22.460Z,90946.09
2023-05-19T20:39:07.268Z,90954.00
2023-05-19T20:41:52.235Z,90952.81
2023-05-19T20:44:37.063Z,90949.69
2023-05-19T20:47:21.837Z,90957.16
2023-05-19T20:50:06.761Z,90954.53
2023-05-19T20:52:51.667Z,90950.94
2023-05-19T20:55:36.592Z,90950.22
2023-05-19T20:58:21.450Z,90956.22
